Time;durP1;ratioP1;P1;durP2;ratioP2;P2;SDS_P1;SDS_P2;PMS_P1;PMS_P2;Temp;Humidity;BMP_temperature;BMP_pressure;BME280_temperature;BME280_humidity;BME280_pressure;Samples;Min_cycle;Max_cycle;Signal;HPM_P1;HPM_P2
2024/02/07 00:01:31;;;;;;;3.08;1.95;;;;;;;6.75;100.00;99459.16;4975069;28;20089;-92
2024/02/07 00:03:59;;;;;;;1.50;1.40;;;;;;;6.81;100.00;99453.69;4975764;28;20034;-92
2024/02/07 00:06:25;;;;;;;3.33;1.40;;;;;;;6.62;100.00;99468.47;4974855;28;20497;-93
2024/02/07 00:08:51;;;;;;;7.20;1.00;;;;;;;6.49;100.00;99467.53;4975798;28;20045;-93
2024/02/07 00:11:16;;;;;;;6.55;0.90;;;;;;;6.31;100.00;99461.69;4975336;28;20049;-93
2024/02/07 00:13:42;;;;;;;5.65;0.77;;;;;;;6.13;100.00;99479.72;4975313;28;20023;-92
2024/02/07 00:16:07;;;;;;;4.70;0.70;;;;;;;6.07;100.00;99471.53;4973224;28;20118;-91
2024/02/07 00:18:32;;;;;;;4.13;0.65;;;;;;;5.73;100.00;99468.19;4975583;28;20476;-92
2024/02/07 00:20:58;;;;;;;4.20;0.60;;;;;;;5.84;100.00;99471.00;4975638;28;20031;-91
2024/02/07 00:23:23;;;;;;;2.78;0.82;;;;;;;5.65;100.00;99480.56;4974464;28;20046;-91
2024/02/07 00:25:48;;;;;;;7.03;0.73;;;;;;;5.56;100.00;99477.59;4975665;28;20030;-91
2024/02/07 00:28:14;;;;;;;4.68;1.05;;;;;;;5.56;100.00;99487.03;4975573;28;20026;-91
2024/02/07 00:30:39;;;;;;;5.90;1.20;;;;;;;5.53;100.00;99482.03;4975440;28;20115;-90
2024/02/07 00:33:04;;;;;;;5.55;1.27;;;;;;;5.42;100.00;99479.22;4975783;28;20034;-90
2024/02/07 00:35:30;;;;;;;6.68;1.05;;;;;;;5.34;100.00;99471.91;4975502;28;20022;-91
2024/02/07 00:37:55;;;;;;;5.53;1.00;;;;;;;5.22;100.00;99475.94;4975290;28;20113;-92
2024/02/07 00:40:21;;;;;;;6.20;1.35;;;;;;;5.28;100.00;99477.34;4974134;28;20026;-92
2024/02/07 00:42:47;;;;;;;2.47;0.55;;;;;;;5.36;100.00;99477.78;4974043;28;20377;-92
2024/02/07 00:45:12;;;;;;;9.77;2.55;;;;;;;5.34;100.00;99477.03;4973195;28;20022;-92
2024/02/07 00:47:37;;;;;;;4.15;1.05;;;;;;;5.21;100.00;99486.25;4975417;28;20097;-91
2024/02/07 00:50:03;;;;;;;5.90;1.33;;;;;;;5.35;100.00;99478.69;4974060;28;20392;-92
2024/02/07 00:52:29;;;;;;;6.53;1.45;;;;;;;5.18;100.00;99482.13;4973978;28;20031;-92
2024/02/07 00:54:54;;;;;;;6.90;2.22;;;;;;;5.22;100.00;99493.00;4974110;28;20454;-91
2024/02/07 00:57:19;;;;;;;4.45;1.52;;;;;;;5.15;100.00;99501.00;4973901;28;20030;-92
2024/02/07 00:59:45;;;;;;;7.22;2.10;;;;;;;5.01;100.00;99500.88;4973960;28;20023;-91
2024/02/07 01:02:10;;;;;;;2.97;1.00;;;;;;;5.07;100.00;99498.00;4975250;28;20031;-91
2024/02/07 01:04:36;;;;;;;7.32;3.53;;;;;;;5.12;100.00;99493.50;4974999;28;20027;-91
2024/02/07 01:07:01;;;;;;;3.45;1.50;;;;;;;5.13;100.00;99500.25;4975168;28;20033;-92
2024/02/07 01:09:29;;;;;;;4.32;1.40;;;;;;;5.10;100.00;99502.97;4973579;28;20137;-93
2024/02/07 01:11:54;;;;;;;3.20;1.40;;;;;;;5.11;100.00;99511.47;4973863;28;20121;-91
2024/02/07 01:14:20;;;;;;;3.45;1.20;;;;;;;5.19;100.00;99519.56;4975014;28;20103;-91
2024/02/07 01:16:45;;;;;;;4.97;1.02;;;;;;;5.17;100.00;99515.44;4973265;28;20046;-92
2024/02/07 01:19:11;;;;;;;2.03;1.10;;;;;;;5.16;100.00;99524.84;4974640;28;20031;-91
2024/02/07 01:21:36;;;;;;;4.25;0.90;;;;;;;5.11;100.00;99517.41;4973313;28;20023;-91
2024/02/07 01:24:04;;;;;;;3.65;0.80;;;;;;;4.93;100.00;99515.75;4974326;28;20515;-91
2024/02/07 01:26:33;;;;;;;2.75;0.60;;;;;;;5.01;100.00;99511.09;4973342;28;20447;-91
2024/02/07 01:28:59;;;;;;;2.13;0.68;;;;;;;4.98;100.00;99515.53;4974640;28;20118;-91
2024/02/07 01:31:24;;;;;;;3.20;0.40;;;;;;;4.92;100.00;99509.81;4973231;28;20186;-91
2024/02/07 01:33:50;;;;;;;4.95;0.70;;;;;;;4.95;100.00;99519.09;4974365;28;20082;-92
2024/02/07 01:36:15;;;;;;;6.72;0.60;;;;;;;4.80;100.00;99525.75;4974367;28;20027;-91
2024/02/07 01:38:41;;;;;;;2.50;0.38;;;;;;;4.72;100.00;99517.63;4973164;28;20038;-91
2024/02/07 01:41:06;;;;;;;3.63;0.60;;;;;;;4.71;100.00;99519.34;4973085;28;20046;-91
2024/02/07 01:43:33;;;;;;;4.38;1.20;;;;;;;4.70;100.00;99527.09;4974290;28;20038;-92
2024/02/07 01:46:02;;;;;;;4.95;0.98;;;;;;;4.77;100.00;99522.50;4974349;28;20042;-91
2024/02/07 01:48:29;;;;;;;0.85;0.43;;;;;;;4.58;100.00;99523.38;4974437;28;20026;-92
2024/02/07 01:50:55;;;;;;;6.47;0.82;;;;;;;4.54;100.00;99509.13;4972768;28;20150;-91
2024/02/07 01:53:22;;;;;;;4.95;0.55;;;;;;;4.55;100.00;99526.09;4974225;28;20029;-91
2024/02/07 01:55:51;;;;;;;2.30;0.32;;;;;;;4.66;100.00;99517.94;4972884;28;20027;-91
2024/02/07 01:58:17;;;;;;;3.42;0.43;;;;;;;4.51;100.00;99509.25;4973684;28;20166;-91
2024/02/07 02:00:44;;;;;;;3.50;0.75;;;;;;;4.56;100.00;99515.00;4975584;28;20050;-92
2024/02/07 02:03:12;;;;;;;5.20;1.15;;;;;;;4.54;100.00;99515.97;4975650;28;20030;-92
2024/02/07 02:05:41;;;;;;;2.88;0.63;;;;;;;4.69;100.00;99516.03;4976255;28;20027;-90
2024/02/07 02:08:10;;;;;;;2.90;0.60;;;;;;;4.74;100.00;99518.38;4977679;28;20031;-91
2024/02/07 02:10:36;;;;;;;1.67;0.80;;;;;;;4.72;100.00;99510.78;4977355;28;20491;-91
2024/02/07 02:13:02;;;;;;;4.65;0.73;;;;;;;4.70;100.00;99494.69;4976591;28;20030;-91
2024/02/07 02:15:29;;;;;;;7.15;1.10;;;;;;;4.61;100.00;99502.81;4972742;28;20370;-92
2024/02/07 02:17:54;;;;;;;4.72;0.93;;;;;;;4.63;100.00;99495.91;4973901;28;20027;-91
2024/02/07 02:20:20;;;;;;;2.15;0.60;;;;;;;4.49;100.00;99508.50;4973876;28;20042;-91
2024/02/07 02:22:47;;;;;;;5.47;0.98;;;;;;;4.53;100.00;99515.09;4972540;28;20688;-91
2024/02/07 02:25:34;;;;;;;3.45;0.70;;;;;;;4.60;100.00;99515.66;4972413;28;20083;-92
2024/02/07 02:28:29;;;;;;;7.47;1.50;;;;;;;4.55;100.00;99522.72;4972466;28;20058;-91
2024/02/07 02:30:57;;;;;;;9.00;0.88;;;;;;;4.49;100.00;99514.44;4972260;28;20066;-91
2024/02/07 02:33:25;;;;;;;4.65;1.10;;;;;;;4.42;100.00;99517.34;4972349;28;20309;-92
2024/02/07 02:35:53;;;;;;;7.88;0.80;;;;;;;4.56;100.00;99509.03;4973329;28;20035;-90
2024/02/07 02:38:19;;;;;;;6.78;0.95;;;;;;;4.60;100.00;99508.81;4973473;28;20027;-92
2024/02/07 02:40:45;;;;;;;9.43;0.93;;;;;;;4.52;100.00;99505.81;4973447;28;20425;-92
2024/02/07 02:43:10;;;;;;;6.85;1.20;;;;;;;4.53;100.00;99510.00;4973051;28;20023;-91
2024/02/07 02:45:37;;;;;;;5.90;0.98;;;;;;;4.59;100.00;99509.72;4972620;28;20035;-91
2024/02/07 02:48:02;;;;;;;7.38;0.80;;;;;;;4.57;100.00;99506.41;4972260;28;20409;-91
2024/02/07 02:50:29;;;;;;;5.95;0.63;;;;;;;4.54;100.00;99504.00;4972318;28;20033;-91
2024/02/07 02:52:55;;;;;;;3.72;0.90;;;;;;;4.55;100.00;99495.44;4972356;28;20027;-91
2024/02/07 02:55:21;;;;;;;6.05;1.10;;;;;;;4.50;100.00;99494.81;4972256;28;20061;-92
2024/02/07 02:57:47;;;;;;;4.00;0.90;;;;;;;4.50;100.00;99499.94;4973172;28;20556;-92
2024/02/07 03:00:14;;;;;;;8.20;1.58;;;;;;;4.54;100.00;99498.91;4972108;28;20031;-92
2024/02/07 03:02:46;;;;;;;6.25;1.50;;;;;;;4.48;100.00;99482.09;4973398;28;20023;-92
2024/02/07 03:08:05;;;;;;;6.72;0.82;;;;;;;4.61;100.00;99492.59;4974261;28;20085;-92
2024/02/07 03:10:31;;;;;;;9.35;2.25;;;;;;;4.68;100.00;99499.06;4974583;28;20120;-92
2024/02/07 03:12:56;;;;;;;6.40;1.00;;;;;;;4.60;100.00;99513.09;4962142;28;20055;-91
2024/02/07 03:15:22;;;;;;;6.53;1.50;;;;;;;4.60;100.00;99511.38;4957468;28;20028;-91
2024/02/07 03:17:48;;;;;;;8.80;1.33;;;;;;;4.49;100.00;99500.84;4956326;29;20035;-92
2024/02/07 03:20:14;;;;;;;7.45;1.38;;;;;;;4.64;100.00;99497.53;4956404;28;20030;-91
2024/02/07 03:22:40;;;;;;;8.98;1.08;;;;;;;4.60;100.00;99490.09;4957238;28;20046;-91
2024/02/07 03:25:07;;;;;;;13.75;1.85;;;;;;;4.60;100.00;99485.00;4957487;28;20481;-93
2024/02/07 03:27:33;;;;;;;7.97;1.20;;;;;;;4.50;100.00;99489.72;4957367;28;20114;-92
2024/02/07 03:29:58;;;;;;;12.98;1.65;;;;;;;4.40;100.00;99491.06;4956414;29;20161;-92
2024/02/07 03:32:24;;;;;;;9.80;1.50;;;;;;;4.49;100.00;99498.28;4956312;29;20117;-91
2024/02/07 03:34:51;;;;;;;17.70;1.67;;;;;;;4.57;100.00;99490.25;4956391;28;20023;-91
2024/02/07 03:37:17;;;;;;;8.25;1.80;;;;;;;4.56;100.00;99488.56;4955939;28;20031;-91
2024/02/07 03:39:42;;;;;;;7.00;1.02;;;;;;;4.54;100.00;99496.34;4956067;28;20121;-91
2024/02/07 03:42:08;;;;;;;10.20;3.45;;;;;;;4.52;100.00;99482.81;4957016;28;20027;-92
2024/02/07 03:44:34;;;;;;;4.47;1.50;;;;;;;4.64;100.00;99487.31;4957417;28;20100;-91
2024/02/07 03:46:59;;;;;;;13.95;1.55;;;;;;;4.57;100.00;99491.06;4956130;28;20039;-92
2024/02/07 03:49:25;;;;;;;5.70;1.35;;;;;;;4.52;100.00;99485.34;4955852;28;20019;-91
2024/02/07 03:51:52;;;;;;;6.10;1.60;;;;;;;4.55;100.00;99492.88;4955659;28;20109;-91
2024/02/07 03:54:18;;;;;;;9.38;1.92;;;;;;;4.51;100.00;99476.03;4971717;28;20494;-91
2024/02/07 03:56:44;;;;;;;7.40;1.55;;;;;;;4.61;100.00;99491.75;4956569;28;20118;-91
2024/02/07 03:59:09;;;;;;;9.65;1.50;;;;;;;4.59;100.00;99479.06;4956967;28;20155;-94
2024/02/07 04:01:35;;;;;;;5.55;1.05;;;;;;;4.59;100.00;99484.16;4956936;28;20469;-91
2024/02/07 04:04:00;;;;;;;10.07;1.55;;;;;;;4.45;100.00;99481.44;4955666;28;20062;-91
2024/02/07 04:06:28;;;;;;;9.38;1.60;;;;;;;4.45;100.00;99491.66;4956684;28;20031;-92
2024/02/07 04:08:55;;;;;;;14.77;2.72;;;;;;;4.53;100.00;99499.78;4955491;28;20050;-92
2024/02/07 05:16:19;;;;;;;7.80;1.98;;;;;;;4.71;100.00;99515.97;4955571;28;20090;-92
2024/02/07 05:18:45;;;;;;;8.30;1.95;;;;;;;4.71;100.00;99506.56;4954073;29;20035;-92
2024/02/07 05:21:12;;;;;;;6.32;2.03;;;;;;;4.61;100.00;99500.25;4954227;28;20031;-93
2024/02/07 05:23:41;;;;;;;8.50;2.40;;;;;;;4.57;100.00;99516.63;4954277;29;20031;-93
2024/02/07 05:26:08;;;;;;;5.43;1.95;;;;;;;4.65;100.00;99511.97;4954123;28;20020;-92
2024/02/07 05:28:33;;;;;;;5.57;2.33;;;;;;;4.67;100.00;99507.63;4955549;28;20114;-92
2024/02/07 05:30:59;;;;;;;10.55;2.40;;;;;;;4.63;100.00;99506.13;4953686;28;20118;-93
2024/02/07 05:33:24;;;;;;;8.60;1.80;;;;;;;4.76;100.00;99495.31;4953894;28;20038;-92
2024/02/07 05:35:50;;;;;;;6.75;2.00;;;;;;;4.75;100.00;99509.78;4953925;28;20396;-92
2024/02/07 05:38:16;;;;;;;5.90;2.42;;;;;;;4.78;100.00;99508.81;4953514;29;20030;-93
2024/02/07 05:40:41;;;;;;;9.02;2.08;;;;;;;4.66;100.00;99505.16;4953948;29;20023;-93
2024/02/07 05:43:07;;;;;;;15.23;5.15;;;;;;;4.65;100.00;99504.31;4955147;28;20036;-92
2024/02/07 05:45:32;;;;;;;11.02;1.95;;;;;;;4.65;100.00;99498.38;4953849;28;20020;-92
2024/02/07 05:47:58;;;;;;;13.93;2.17;;;;;;;4.70;100.00;99504.91;4955005;28;20035;-92
2024/02/07 05:50:23;;;;;;;10.48;1.95;;;;;;;4.70;100.00;99502.34;4953767;29;20485;-92
2024/02/07 05:52:48;;;;;;;11.40;3.03;;;;;;;4.75;100.00;99506.41;4954848;28;20031;-92
2024/02/07 05:55:14;;;;;;;10.57;2.40;;;;;;;4.75;100.00;99503.88;4953675;28;20034;-92
2024/02/07 05:57:40;;;;;;;12.90;2.28;;;;;;;4.74;100.00;99509.88;4954721;28;20034;-92
2024/02/07 06:00:08;;;;;;;7.60;1.80;;;;;;;4.82;100.00;99520.56;4954942;28;20418;-93
2024/02/07 06:02:35;;;;;;;8.93;2.03;;;;;;;4.87;100.00;99519.44;4969576;28;20119;-93
2024/02/07 06:05:03;;;;;;;10.05;2.00;;;;;;;4.75;100.00;99508.97;4954642;28;20098;-92
2024/02/07 06:07:30;;;;;;;11.75;2.10;;;;;;;4.78;100.00;99499.44;4953274;29;20086;-91
2024/02/07 06:09:56;;;;;;;12.25;2.20;;;;;;;4.71;100.00;99498.91;4954752;28;20031;-93
2024/02/07 06:12:22;;;;;;;13.48;2.65;;;;;;;4.76;100.00;99485.09;4953499;28;20117;-92
2024/02/07 06:14:47;;;;;;;5.38;2.25;;;;;;;4.73;100.00;99483.50;4953609;28;20105;-93
2024/02/07 06:17:12;;;;;;;13.35;2.60;;;;;;;4.62;100.00;99476.34;4954411;29;20058;-92
2024/02/07 06:19:38;;;;;;;10.10;2.35;;;;;;;4.52;100.00;99482.81;4953506;28;20043;-93
2024/02/07 06:22:05;;;;;;;8.07;2.88;;;;;;;4.60;100.00;99478.13;4953586;28;20038;-92
2024/02/07 06:24:31;;;;;;;11.63;2.97;;;;;;;4.51;100.00;99468.34;4953645;28;20127;-93
2024/02/07 06:26:57;;;;;;;15.13;3.00;;;;;;;4.53;100.00;99474.22;4953582;28;20333;-92
2024/02/07 06:29:22;;;;;;;12.05;2.85;;;;;;;4.54;100.00;99475.91;4953569;28;20306;-91
2024/02/07 06:31:47;;;;;;;7.95;2.55;;;;;;;4.64;100.00;99477.09;4953399;28;20139;-92
2024/02/07 06:34:13;;;;;;;8.27;2.28;;;;;;;4.67;100.00;99486.34;4953337;28;20098;-92
2024/02/07 06:36:38;;;;;;;10.88;3.60;;;;;;;4.58;100.00;99482.50;4953483;28;20027;-92
2024/02/07 06:39:04;;;;;;;11.48;2.70;;;;;;;4.69;100.00;99480.25;4954023;28;20039;-92
2024/02/07 06:41:29;;;;;;;10.35;2.67;;;;;;;4.71;100.00;99485.31;4953350;28;20473;-92
2024/02/07 06:43:55;;;;;;;11.05;2.55;;;;;;;4.63;100.00;99484.84;4952533;28;20418;-92
2024/02/07 06:46:20;;;;;;;7.57;2.67;;;;;;;4.63;100.00;99495.06;4953078;28;20039;-93
2024/02/07 06:48:45;;;;;;;9.98;3.13;;;;;;;4.73;100.00;99498.84;4953128;29;20226;-93
2024/02/07 06:51:11;;;;;;;6.88;2.30;;;;;;;4.69;100.00;99495.59;4953336;28;20035;-92
2024/02/07 06:53:36;;;;;;;8.75;2.42;;;;;;;4.78;100.00;99503.72;4953255;28;20033;-93
2024/02/07 06:56:02;;;;;;;12.50;3.17;;;;;;;4.76;100.00;99490.19;4953524;29;20427;-92
2024/02/07 06:58:30;;;;;;;8.40;2.72;;;;;;;4.77;100.00;99486.72;4953225;28;20031;-92
2024/02/07 07:00:57;;;;;;;11.88;3.25;;;;;;;4.79;100.00;99490.03;4953178;29;20027;-92
2024/02/07 07:03:25;;;;;;;10.07;2.55;;;;;;;4.86;100.00;99493.97;4953236;28;20078;-93
2024/02/07 07:05:50;;;;;;;9.18;2.80;;;;;;;4.68;100.00;99493.94;4953257;28;20043;-93
2024/02/07 07:08:16;;;;;;;9.23;2.72;;;;;;;4.82;100.00;99500.09;4953205;29;20023;-93
2024/02/07 07:10:42;;;;;;;8.93;2.38;;;;;;;4.87;100.00;99503.25;4953119;29;20118;-93
2024/02/07 07:13:07;;;;;;;8.63;2.60;;;;;;;4.89;100.00;99498.91;4953093;29;20024;-94
2024/02/07 07:15:33;;;;;;;10.60;2.30;;;;;;;4.79;100.00;99500.25;4953129;28;20474;-93
2024/02/07 07:17:58;;;;;;;6.93;2.20;;;;;;;4.86;100.00;99504.19;4953081;29;20027;-93
2024/02/07 07:20:24;;;;;;;7.18;3.05;;;;;;;4.78;100.00;99511.38;4952910;28;20477;-93
2024/02/07 07:22:50;;;;;;;8.98;3.70;;;;;;;4.83;100.00;99506.88;4952885;29;20037;-93
2024/02/07 07:25:15;;;;;;;11.32;3.17;;;;;;;4.78;100.00;99508.81;4954215;28;20374;-93
2024/02/07 07:27:40;;;;;;;8.45;2.38;;;;;;;4.84;100.00;99516.22;4954343;29;20586;-93
2024/02/07 07:30:06;;;;;;;6.72;2.22;;;;;;;4.89;100.00;99511.69;4953092;29;20059;-94
2024/02/07 07:32:32;;;;;;;8.10;2.60;;;;;;;4.92;100.00;99516.66;4953039;28;20032;-93
2024/02/07 07:34:57;;;;;;;5.47;1.83;;;;;;;4.92;100.00;99516.66;4953210;28;20082;-93
2024/02/07 07:37:23;;;;;;;7.10;2.65;;;;;;;4.90;100.00;99524.41;4953040;28;20086;-94
2024/02/07 07:39:49;;;;;;;12.25;2.67;;;;;;;4.78;100.00;99525.00;4953211;28;20110;-92
2024/02/07 07:42:15;;;;;;;10.05;2.47;;;;;;;4.74;100.00;99522.69;4953108;28;20457;-93
2024/02/07 07:44:42;;;;;;;6.13;2.33;;;;;;;4.88;100.00;99510.06;4953146;28;20023;-94
2024/02/07 07:47:07;;;;;;;5.45;2.40;;;;;;;4.82;100.00;99520.56;4952813;29;20039;-94
2024/02/07 07:49:33;;;;;;;10.80;2.70;;;;;;;4.87;100.00;99518.59;4953034;28;20107;-93
2024/02/07 07:51:58;;;;;;;7.13;2.33;;;;;;;4.78;100.00;99509.66;4952958;28;20054;-93
2024/02/07 07:54:23;;;;;;;8.70;3.83;;;;;;;4.72;100.00;99515.06;4953890;28;20115;-93
2024/02/07 07:56:49;;;;;;;14.55;3.08;;;;;;;4.72;100.00;99518.44;4957375;28;20031;-93
2024/02/07 07:59:14;;;;;;;21.42;4.88;;;;;;;4.83;100.00;99528.16;4957545;29;20027;-94
2024/02/07 08:01:39;;;;;;;16.10;6.68;;;;;;;4.90;100.00;99531.22;4956272;28;20413;-93
2024/02/07 08:04:05;;;;;;;12.20;2.63;;;;;;;4.96;100.00;99519.91;4956221;28;20536;-93
2024/02/07 08:06:30;;;;;;;9.30;2.78;;;;;;;4.99;100.00;99518.00;4956321;28;20027;-93
2024/02/07 08:08:56;;;;;;;5.32;2.60;;;;;;;5.04;100.00;99520.34;4955952;28;20533;-94
2024/02/07 08:11:21;;;;;;;16.88;3.38;;;;;;;4.97;100.00;99518.97;4970273;28;20039;-95
2024/02/07 08:13:48;;;;;;;7.03;3.10;;;;;;;5.13;100.00;99525.81;4975482;28;20033;-93
2024/02/07 08:16:13;;;;;;;8.02;2.78;;;;;;;5.26;100.00;99525.22;4974950;28;20026;-94
2024/02/07 08:18:38;;;;;;;9.02;3.15;;;;;;;5.24;100.00;99527.88;4974659;28;20034;-91
2024/02/07 08:21:05;;;;;;;8.65;2.85;;;;;;;5.31;100.00;99529.19;4976318;28;20038;-95
2024/02/07 08:23:31;;;;;;;10.10;3.05;;;;;;;5.29;100.00;99520.78;4975825;28;20035;-92
2024/02/07 08:25:56;;;;;;;11.93;3.20;;;;;;;5.39;100.00;99521.16;4974804;28;20436;-95
2024/02/07 08:28:22;;;;;;;5.70;2.67;;;;;;;5.47;100.00;99521.56;4974910;28;20027;-94
2024/02/07 08:30:48;;;;;;;11.13;3.17;;;;;;;5.39;100.00;99517.75;4974403;28;20023;-93
2024/02/07 08:33:13;;;;;;;8.73;2.70;;;;;;;5.46;100.00;99517.38;4974171;28;20300;-88
2024/02/07 08:35:38;;;;;;;7.82;2.92;;;;;;;5.44;100.00;99503.81;4974236;28;20038;-92
2024/02/07 08:38:04;;;;;;;16.08;3.33;;;;;;;5.37;100.00;99494.81;4971509;28;20058;-92
2024/02/07 08:40:29;;;;;;;6.53;2.45;;;;;;;5.35;100.00;99500.00;4975144;28;20027;-93
2024/02/07 08:42:55;;;;;;;9.55;2.80;;;;;;;5.42;100.00;99505.63;4973710;28;20065;-92
2024/02/07 08:45:20;;;;;;;9.05;3.08;;;;;;;5.29;100.00;99504.59;4962649;28;20117;-91
2024/02/07 08:47:46;;;;;;;6.40;2.67;;;;;;;5.34;100.00;99497.50;4973825;28;20022;-93
2024/02/07 08:50:13;;;;;;;9.98;3.25;;;;;;;5.41;100.00;99498.03;4973241;28;20078;-91
2024/02/07 08:52:42;;;;;;;9.85;2.72;;;;;;;5.48;100.00;99507.03;4973809;28;20452;-93
2024/02/07 08:55:08;;;;;;;8.15;3.58;;;;;;;5.33;100.00;99511.22;4973177;28;20029;-91
2024/02/07 08:57:35;;;;;;;11.48;2.95;;;;;;;5.40;100.00;99499.75;4974527;28;20031;-92
2024/02/07 09:00:00;;;;;;;13.15;2.40;;;;;;;5.49;100.00;99506.16;4974942;28;20022;-92
2024/02/07 09:02:26;;;;;;;9.15;2.58;;;;;;;5.51;100.00;99505.16;4973347;28;20072;-92
2024/02/07 09:04:51;;;;;;;6.93;2.40;;;;;;;5.69;100.00;99502.56;4973757;28;20037;-91
2024/02/07 09:07:16;;;;;;;7.53;2.38;;;;;;;5.91;100.00;99492.00;4974275;28;20484;-92
2024/02/07 09:09:42;;;;;;;5.45;2.20;;;;;;;5.89;100.00;99493.81;4974305;28;20114;-92
2024/02/07 09:12:07;;;;;;;9.95;2.85;;;;;;;6.05;100.00;99498.97;4974810;28;20027;-93
2024/02/07 09:14:32;;;;;;;8.32;2.63;;;;;;;6.00;100.00;99499.25;4974711;28;20037;-92
2024/02/07 09:16:58;;;;;;;14.82;2.47;;;;;;;6.07;100.00;99507.41;4974534;28;20451;-92
2024/02/07 09:19:23;;;;;;;7.63;2.40;;;;;;;6.11;100.00;99524.25;4973397;28;20022;-92
2024/02/07 09:21:48;;;;;;;14.40;2.58;;;;;;;6.04;100.00;99520.38;4974568;28;20141;-90
2024/02/07 09:24:14;;;;;;;11.05;2.58;;;;;;;5.81;100.00;99524.13;4973824;28;20034;-91
2024/02/07 09:26:39;;;;;;;12.45;2.60;;;;;;;5.81;100.00;99516.44;4974903;28;20027;-91
2024/02/07 09:29:04;;;;;;;6.35;1.90;;;;;;;5.82;100.00;99513.78;4973255;28;20031;-90
2024/02/07 09:31:30;;;;;;;7.07;1.92;;;;;;;5.76;100.00;99519.25;4974444;28;20062;-91
2024/02/07 09:33:55;;;;;;;7.18;2.35;;;;;;;5.92;100.00;99537.19;4974304;28;20161;-93
2024/02/07 09:36:21;;;;;;;6.45;2.78;;;;;;;6.03;100.00;99528.97;4973490;28;20031;-92
2024/02/07 09:38:46;;;;;;;10.85;2.95;;;;;;;5.93;100.00;99534.56;4973562;28;20034;-91
2024/02/07 09:41:15;;;;;;;7.68;2.38;;;;;;;5.64;100.00;99530.94;4972933;28;20026;-92
2024/02/07 09:43:41;;;;;;;13.65;2.88;;;;;;;5.78;100.00;99528.50;4973009;28;20026;-92
2024/02/07 09:46:10;;;;;;;14.52;3.00;;;;;;;5.35;100.00;99517.09;4972623;28;20031;-91
2024/02/07 09:48:36;;;;;;;11.02;2.78;;;;;;;5.68;100.00;99526.47;4974504;28;20035;-90
2024/02/07 09:51:02;;;;;;;10.98;2.40;;;;;;;5.66;100.00;99529.16;4974162;28;20077;-93
2024/02/07 09:53:28;;;;;;;6.03;2.70;;;;;;;5.64;100.00;99530.13;4972277;28;20027;-93
2024/02/07 09:55:54;;;;;;;9.18;2.97;;;;;;;5.74;100.00;99534.69;4970830;28;20031;-93
2024/02/07 09:58:20;;;;;;;9.40;2.33;;;;;;;5.81;100.00;99537.75;4969924;28;20114;-93
2024/02/07 10:00:49;;;;;;;10.88;2.60;;;;;;;5.86;100.00;99535.78;4971988;28;20373;-92
2024/02/07 10:03:17;;;;;;;7.72;3.55;;;;;;;5.90;100.00;99516.78;4973472;28;20026;-94
2024/02/07 10:05:58;;;;;;;9.02;2.33;;;;;;;5.91;100.00;99523.56;4973291;28;20106;-91
2024/02/07 10:08:24;;;;;;;7.57;2.03;;;;;;;6.07;100.00;99520.19;4968492;28;20541;-92
2024/02/07 10:10:50;;;;;;;10.70;3.10;;;;;;;5.88;100.00;99515.22;4972232;28;20117;-92
2024/02/07 10:13:17;;;;;;;10.13;2.40;;;;;;;5.78;100.00;99520.00;4955879;28;20034;-92
2024/02/07 10:15:44;;;;;;;5.68;2.40;;;;;;;5.99;100.00;99530.88;4957166;28;20054;-90
2024/02/07 10:18:10;;;;;;;10.32;2.78;;;;;;;6.00;100.00;99535.91;4972222;28;20038;-91
2024/02/07 10:20:35;;;;;;;4.47;2.03;;;;;;;6.17;100.00;99535.03;4972429;28;20038;-92
2024/02/07 10:23:05;;;;;;;5.78;2.05;;;;;;;6.03;100.00;99531.53;4973458;28;20023;-94
2024/02/07 10:25:30;;;;;;;11.68;4.45;;;;;;;5.82;100.00;99529.16;4972767;28;20023;-92
2024/02/07 10:28:06;;;;;;;7.95;2.45;;;;;;;5.88;100.00;99528.84;4969424;28;20446;-92
2024/02/07 10:30:31;;;;;;;12.55;2.83;;;;;;;5.74;100.00;99519.31;4963312;28;20361;-92
2024/02/07 10:32:57;;;;;;;14.13;3.53;;;;;;;5.48;100.00;99523.22;4972770;28;20059;-92
2024/02/07 10:35:23;;;;;;;10.02;3.00;;;;;;;5.48;100.00;99510.41;4972609;28;20023;-92
2024/02/07 10:37:52;;;;;;;15.20;2.70;;;;;;;5.70;100.00;99504.19;4972802;28;20030;-92
2024/02/07 10:40:18;;;;;;;16.00;3.38;;;;;;;5.76;100.00;99506.44;4972611;28;20085;-92
2024/02/07 10:42:55;;;;;;;9.15;3.70;;;;;;;5.61;100.00;99500.41;4973929;28;20027;-93
2024/02/07 10:45:21;;;;;;;10.45;3.83;;;;;;;5.68;100.00;99506.00;4972653;28;20030;-92
2024/02/07 10:47:47;;;;;;;9.43;2.78;;;;;;;5.94;100.00;99508.06;4973142;28;20081;-91
2024/02/07 10:50:16;;;;;;;14.68;3.35;;;;;;;6.04;100.00;99503.25;4972485;28;20476;-94
2024/02/07 10:52:42;;;;;;;9.68;2.97;;;;;;;5.83;100.00;99517.19;4972619;28;20085;-93
2024/02/07 10:55:11;;;;;;;14.23;3.63;;;;;;;5.85;100.00;99528.16;4972419;28;20027;-93
2024/02/07 10:57:38;;;;;;;11.93;3.63;;;;;;;5.87;100.00;99527.19;4972790;28;20034;-93
2024/02/07 11:00:05;;;;;;;15.15;3.35;;;;;;;5.99;100.00;99541.09;4972423;28;20484;-93
2024/02/07 11:02:32;;;;;;;16.13;3.97;;;;;;;6.07;100.00;99540.69;4972424;28;20118;-92
2024/02/07 11:05:00;;;;;;;11.25;4.35;;;;;;;6.03;100.00;99541.78;4963961;28;20119;-93
2024/02/07 11:07:25;;;;;;;10.20;2.80;;;;;;;6.05;100.00;99539.94;4952557;28;20054;-93
2024/02/07 11:09:52;;;;;;;7.97;2.60;;;;;;;6.24;100.00;99547.47;4954436;29;20061;-94
2024/02/07 11:12:17;;;;;;;8.85;2.67;;;;;;;6.29;100.00;99545.50;4953770;29;20047;-94
2024/02/07 11:14:47;;;;;;;14.48;3.63;;;;;;;6.18;100.00;99543.53;4955831;28;20028;-92
2024/02/07 11:17:14;;;;;;;9.32;2.97;;;;;;;6.14;100.00;99536.91;4952747;28;20023;-92
2024/02/07 11:19:43;;;;;;;13.18;3.20;;;;;;;6.05;100.00;99529.69;4953695;28;20066;-93
2024/02/07 11:22:32;;;;;;;9.30;2.90;;;;;;;6.31;100.00;99521.44;4961188;28;20122;-94
2024/02/07 11:24:59;;;;;;;10.75;4.53;;;;;;;6.28;100.00;99521.63;4974207;28;20488;-96
2024/02/07 11:27:28;;;;;;;11.23;3.15;;;;;;;6.28;100.00;99513.09;4980576;28;20035;-94
2024/02/07 11:29:54;;;;;;;12.18;2.47;;;;;;;6.35;100.00;99522.13;4979176;28;20023;-95
2024/02/07 11:32:20;;;;;;;12.63;3.35;;;;;;;6.52;100.00;99516.88;4980614;28;20027;-94
2024/02/07 11:34:53;;;;;;;12.05;3.08;;;;;;;6.62;100.00;99509.50;4975135;28;20053;-93
2024/02/07 11:37:20;;;;;;;9.80;3.15;;;;;;;6.46;100.00;99513.81;4975211;28;20042;-92
2024/02/07 11:39:49;;;;;;;9.70;3.15;;;;;;;6.38;100.00;99527.88;4975987;28;20029;-92
2024/02/07 11:42:20;;;;;;;10.50;3.03;;;;;;;6.36;100.00;99529.69;4960572;28;20114;-92
2024/02/07 11:44:55;;;;;;;12.32;2.50;;;;;;;6.36;100.00;99516.88;4976269;28;20030;-94
2024/02/07 11:47:26;;;;;;;8.48;2.80;;;;;;;6.43;100.00;99510.50;4975000;28;20031;-94
2024/02/07 11:49:56;;;;;;;14.68;3.40;;;;;;;6.39;100.00;99503.94;4975516;28;20042;-93
2024/02/07 11:52:29;;;;;;;9.70;3.00;;;;;;;6.13;100.00;99502.78;4975293;28;20034;-93
2024/02/07 11:55:10;;;;;;;11.25;2.80;;;;;;;6.37;100.00;99510.03;4975937;28;20499;-93
2024/02/07 11:57:40;;;;;;;9.95;3.15;;;;;;;6.03;100.00;99516.19;4975250;28;20041;-94
2024/02/07 12:00:07;;;;;;;10.63;3.83;;;;;;;6.32;100.00;99506.91;4975418;28;20030;-92
2024/02/07 12:02:34;;;;;;;10.50;3.83;;;;;;;6.14;100.00;99506.97;4976540;28;20386;-93
2024/02/07 12:05:02;;;;;;;13.40;3.78;;;;;;;6.28;100.00;99511.38;4974887;28;20037;-92
2024/02/07 12:07:29;;;;;;;12.57;3.53;;;;;;;6.28;100.00;99511.38;4977164;28;20032;-93
2024/02/07 12:09:55;;;;;;;13.73;3.70;;;;;;;6.45;100.00;99510.44;4974814;28;20050;-92
2024/02/07 12:12:21;;;;;;;10.65;3.38;;;;;;;6.49;100.00;99503.44;4976079;28;20433;-90
2024/02/07 12:14:48;;;;;;;7.47;2.58;;;;;;;6.60;100.00;99495.94;4976059;28;20469;-92
2024/02/07 12:17:14;;;;;;;8.38;3.60;;;;;;;6.25;100.00;99497.91;4973445;28;20027;-93
2024/02/07 12:19:44;;;;;;;10.30;3.90;;;;;;;6.38;100.00;99502.25;4975817;28;20030;-93
2024/02/07 12:22:18;;;;;;;6.28;3.38;;;;;;;6.19;100.00;99501.59;4974414;28;20027;-92
2024/02/07 12:24:44;;;;;;;9.15;3.70;;;;;;;6.22;100.00;99498.91;4975184;28;20547;-93
2024/02/07 12:27:15;;;;;;;8.93;3.70;;;;;;;6.30;100.00;99494.19;4974741;28;20122;-92
2024/02/07 12:29:55;;;;;;;8.00;2.92;;;;;;;6.30;100.00;99509.53;4975853;28;20027;-92
2024/02/07 12:32:20;;;;;;;9.68;3.30;;;;;;;6.23;100.00;99510.78;4975166;28;20035;-94
2024/02/07 12:34:47;;;;;;;7.95;3.22;;;;;;;6.47;100.00;99500.13;4976509;28;20027;-93
2024/02/07 12:37:21;;;;;;;16.45;4.90;;;;;;;6.54;100.00;99492.00;4973624;28;20567;-94